AirNav   Everest Fuels
 
 1829 users online  

0CL4 700 North Brand Heliport
Glendale, California, USA

GOING TO GLENDALE?


FAA INFORMATION EFFECTIVE 07 NOVEMBER 2019

Location

FAA Identifier: 0CL4
Lat/Long: 34-09-25.8900N 118-15-16.6000W
34-09.431500N 118-15.276667W
34.1571917,-118.2546111
(estimated)
Elevation: 770 ft. / 235 m (estimated)
Variation: 14E (1985)
From city: 1 mile NW of GLENDALE, CA
Time zone: UTC -8 (UTC -7 during Daylight Saving Time)
Zip code: 91203

Heliport Operations

Heliport use: Private use. Permission required prior to landing
Activation date: 10/1987
Control tower: no
ARTCC: LOS ANGELES CENTER
FSS: HAWTHORNE FLIGHT SERVICE STATION
Attendance: UNATNDD
Wind indicator: yes
Segmented circle: yes
Lights: FOR PERIMETER LGTS CALL 818-500-2140

Heliport Communications

WX ASOS at BUR (6 nm NW): PHONE 818-841-1384
WX AWOS-3PT at WHP (10 nm NW): 132.1 (818-899-9820)
WX AWOS-3PT at EMT (12 nm E): 118.75 ((626) 444-1107)
WX ASOS at VNY (12 nm W): PHONE 818-904-9213
WX ASOS at SMO (13 nm SW): PHONE 310-392-6453
WX ASOS at HHR (15 nm S): PHONE 310-973-8930
WX ASOS at LAX (15 nm SW): PHONE 310-568-1486
WX AWOS-3PT at CPM (16 nm S): 127.150 (310-631-4958)

Nearby radio navigation aids

VOR radial/distance  VOR name  Freq  Var
VNYr094/12.4VAN NUYS VOR/DME113.1015E
SMOr034/13.4SANTA MONICA VOR/DME110.8015E
LAXr018/16.1LOS ANGELES VORTAC113.6015E
POMr267/23.7POMONA VORTAC110.4015E
SLIr321/24.5SEAL BEACH VORTAC115.7015E
PMDr183/30.0PALMDALE VORTAC114.5015E
FIMr096/33.3FILLMORE VORTAC112.5015E
LHSr138/35.4LAKE HUGHES VORTAC114.3515E
PDZr277/38.8PARADISE VORTAC112.2015E
ELBr304/38.9EL TORO VOR/DME117.2014E
VTUr071/39.6VENTURA VOR/DME108.2015E

Heliport Services

Runway Information

Helipad H1

Dimensions: 50 x 50 ft. / 15 x 15 m
Surface: concrete
Runway edge lights: PERI
Latitude: 34-09.431500N
Longitude: 118-15.276667W
Elevation: 770.0 ft.
Traffic pattern: leftleft

Heliport Ownership and Management from official FAA records

Ownership: Privately-owned
Owner: BRE BRAND CENTRAL PARTNERS
700 N BRAND BLVD
GLENDALE, CA 91209
Phone 818-334-2240
Manager: LISA BAILOR
700 N BRAND BLVD
GLENDALE, CA 91209
Phone 818-334-2240

Additional Remarks

FOR CD CTC LOS ANGELES ARTCC AT 661-575-2079.

Instrument Procedures

There are no published instrument procedures at 0CL4.

Some nearby airports with instrument procedures:

KBUR - Bob Hope Airport (6 nm NW)
KWHP - Whiteman Airport (10 nm NW)
KEMT - San Gabriel Valley Airport (12 nm E)
KVNY - Van Nuys Airport (12 nm W)
KSMO - Santa Monica Municipal Airport (13 nm SW)
KHHR - Jack Northrop Field/Hawthorne Municipal Airport (15 nm S)
KLAX - Los Angeles International Airport (15 nm SW)
 
Loc | Ops | Rwys | IFR | FBO | Links
Com | Nav | Svcs | Stats | Notes
Area around 0CL4 (700 North Brand Heliport)
 
Road maps at: MapQuest Bing Google
 
Aerial photo
No photo
 
Sectional chart

 
Airport distance calculator
Flying to 700 North Brand Heliport? Find the distance to fly.

From to 0CL4

Sunrise and sunset
Times for 18-Nov-2019
 Local
(UTC-8)
 Zulu
(UTC)
Morning civil twilight06:0314:03
Sunrise06:3014:30
Sunset16:4700:47
Evening civil twilight17:1301:13

Current date and time
Zulu (UTC)  18-Nov-2019 19:10:00
Local (UTC-8)  18-Nov-2019 11:10:00
 
METAR
KBUR 
6nm NW 
181853Z 00000KT 10SM CLR 28/M06 A2992 RMK AO2 SLP120 T02781056
KCQT 
7nm S 
181852Z AUTO 31/M05 A2989 RMK AO2 SLP117 T03111050 PWINO $
KWHP 
10nm NW 
181850Z 16003KT 10SM SKC 28/M08 A2997
KVNY 
12nm W 
181851Z 33003KT 10SM CLR 38/M04 A2992 RMK AO2 SLP122 T03781044
KSMO 
13nm SW 
181851Z 09003KT 10SM CLR 29/M04 A2990 RMK AO2 SLP123 T02891039
KEMT 
13nm SE 
181745Z 09004KT 10SM CLR 27/02 A2993
KLAX 
15nm SW 
181853Z 02006KT 10SM FEW160 FEW190 31/M06 A2989 RMK AO2 SLP118 T03111056 $
KHHR 
15nm S 
181853Z 00000KT 10SM CLR 31/M06 A2989 RMK AO2 SLP120 T03111061 $
TAF
KBUR 
6nm NW 
181733Z 1818/1918 00000KT P6SM SKC FM182200 17007KT P6SM SCT250 FM190300 VRB03KT P6SM BKN250 FM191600 14005KT P6SM BKN250
KVNY 
12nm W 
181733Z 1818/1918 00000KT P6SM SKC FM182200 13006KT P6SM SCT250 FM190200 VRB03KT P6SM BKN250 FM191600 12005KT P6SM BKN250
KSMO 
13nm SW 
181733Z 1818/1918 03004KT P6SM SKC FM182000 23007KT P6SM SCT250 FM190200 VRB03KT P6SM BKN250 FM190900 05004KT P6SM BKN250 FM191600 23005KT P6SM BKN250
KLAX 
15nm SW 
181733Z 1818/1924 04008KT P6SM FEW250 FM182000 27008KT P6SM SCT250 FM190400 VRB03KT P6SM BKN250 FM191000 10005KT P6SM BKN250 FM191900 26012KT P6SM BKN250
NOTAMs
Click for the latest NOTAMs
NOTAMs are issued by the DoD/FAA and will open in a separate window not controlled by AirNav.

 

 
 

Would you like to see your business listed on this page?

 If your business provides an interesting product or service to pilots, flight crews, aircraft, or users of the 700 North Brand Heliport, you should consider listing it here.  To start the listing process, click on the button below
 
Add a business
 

Other Pages about 700 North Brand Heliport

Update a link
 
Copyright © AirNav, LLC. All rights reserved. Privacy Policy  Contact